Flight Track Log - Related Links

Times and Time Zones

All times are in EDT time to prevent confusion due to time zone crossing. See the PDT4226 flight status page for this flight to view local times or setup timezone preferences in your user account.

Time Position Orientation Groundspeed Altitude Reporting Facility
EDT Latitude Longitude Course Direction KTS MPH feet Rate Location/Type
Sat 12:27:03 PM 39.8833 -75.2000 311° West 122 140 700  Level Philadelphia TRACON
Sat 12:28:27 PM 39.9333 -75.1833 14° North 157 181 2,700 1,375 Climbing Philadelphia TRACON
Sat 12:29:27 PM 39.9833 -75.2000 346° North 159 183 4,000 1,350 Climbing Philadelphia TRACON
Sat 12:30:00 PM 40.1085 -75.4503 303° West  Level FlightAware Approximate
Sat 12:30:27 PM 40.0167 -75.2167 339° North 162 186 5,400  Level Philadelphia TRACON
Sat 12:31:00 PM 40.1676 -75.5014 311° West  Level FlightAware Approximate
Sat 12:31:27 PM 40.0667 -75.2167 360° North 165 190 6,800  Level Philadelphia TRACON
Sat 12:32:00 PM 40.2227 -75.5590 311° West  Level FlightAware Approximate
Sat 12:32:33 PM 40.1000 -75.2667 311° West 174 200 8,100  Level Philadelphia TRACON
Sat 12:33:48 PM 40.1253 -75.3369 295° West 190 219 9,100 441 Climbing New York Center
Sat 12:34:49 PM 40.1600 -75.4097 302° West 209 241 9,100 149 Level New York Center
Sat 12:35:49 PM 40.1864 -75.4767 297° West 236 272 9,400 694 Climbing New York Center
Sat 12:36:50 PM 40.2231 -75.5500 303° West 228 262 10,500 1,059 Climbing New York Center
Sat 12:37:48 PM 40.2789 -75.5619 351° North 193 222 11,500 763 Climbing New York Center
Sat 12:38:48 PM 40.3342 -75.5822 344° North 202 232 12,000 248 Climbing New York Center
Sat 12:39:49 PM 40.3919 -75.6025 345° North 214 246 12,000  Level New York Center
Sat 12:40:50 PM 40.4578 -75.6208 348° North 238 274 12,000  Level New York Center
Sat 12:41:48 PM 40.5342 -75.6397 349° North 249 287 12,000  Level New York Center
Sat 12:42:50 PM 40.5997 -75.6664 343° North 249 287 12,000  Level New York Center
Sat 12:43:49 PM 40.6675 -75.6903 345° North 249 287 12,000  Level New York Center
Sat 12:44:48 PM 40.7292 -75.7086 347° North 244 281 12,000  Level New York Center
Sat 12:45:49 PM 40.7969 -75.7325 345° North 244 281 12,000  Level New York Center
Sat 12:46:49 PM 40.8711 -75.7517 349° North 244 281 12,000  Level New York Center
Sat 12:47:48 PM 40.9411 -75.7706 348° North 244 281 12,000  Level New York Center
Sat 12:48:50 PM 41.0092 -75.7919 347° North 249 287 12,000  Level New York Center
Sat 12:49:50 PM 41.0789 -75.8164 345° North 249 287 12,000  Level New York Center
Sat 12:50:49 PM 41.1406 -75.8322 349° North 249 287 12,000  Level New York Center
Sat 12:51:49 PM 41.2069 -75.8397 355° North 249 287 12,000  Level New York Center
Sat 12:52:49 PM 41.2836 -75.8511 354° North 249 287 12,000  Level New York Center
Sat 12:53:48 PM 41.3539 -75.8647 352° North 249 287 12,000  Level New York Center
Sat 12:55:00 PM 41.4213 -75.8563 353° North  Level FlightAware Approximate
Sat 12:55:49 PM 41.4864 -75.8831 353° North 254 292 12,000  Level New York Center
Sat 12:56:50 PM 41.5525 -75.8964 351° North 248 285 12,000 -250 Level New York Center
Sat 12:57:49 PM 41.6228 -75.9072 353° North 248 285 11,500 -650 Descending New York Center
Sat 12:58:50 PM 41.7014 -75.9217 352° North 258 297 10,700 -750 Descending New York Center
Sat 12:59:49 PM 41.7739 -75.9272 357° North 258 297 10,000 -807 Descending New York Center
Sat 01:00:49 PM 41.8464 -75.9386 353° North 258 297 9,100 -1,008 Descending New York Center
Sat 01:01:48 PM 41.9125 -75.9492 353° North 253 291 8,000 -1,350 Descending New York Center
Sat 01:02:49 PM 41.9767 -75.9597 353° North 223 257 6,400 -1,475 Descending New York Center
Sat 01:03:50 PM 42.0383 -75.9731 351° North 211 243 5,000 -1,250 Descending New York Center
Sat 01:04:49 PM 42.0881 -75.9825 352° North 211 243 3,900 -966 Descending New York Center
Sat 01:05:48 PM 42.1456 -76.0011 347° North 211 243 3,100 -298 Descending New York Center
Sat 01:06:50 PM 42.1900 -76.0297 335° Northwest 197 227 3,300 -200 Climbing New York Center
Sat 01:07:48 PM 42.2233 -76.0297 360° North 172 198 2,700 -504 Descending New York Center
Sat 01:08:49 PM 42.2453 -76.0006 45° Northeast 122 140 2,300 -393 Descending New York Center

Login

Don't have an account? Register now (free) for customized features, flight alerts, and more!